sensor_id;sensor_type;location;lat;lon;timestamp;temperature;humidity
3644;DHT22;1838;50.742;7.158;2022-12-18T00:00:59;-7.00;99.90
3644;DHT22;1838;50.742;7.158;2022-12-18T00:03:25;-7.00;99.90
3644;DHT22;1838;50.742;7.158;2022-12-18T00:05:51;-7.00;99.90
3644;DHT22;1838;50.742;7.158;2022-12-18T00:08:18;-7.00;99.90
3644;DHT22;1838;50.742;7.158;2022-12-18T00:10:44;-7.10;99.90
3644;DHT22;1838;50.742;7.158;2022-12-18T00:13:10;-7.10;99.90
3644;DHT22;1838;50.742;7.158;2022-12-18T00:15:37;-7.20;99.90
3644;DHT22;1838;50.742;7.158;2022-12-18T00:18:03;-7.30;99.90
3644;DHT22;1838;50.742;7.158;2022-12-18T00:20:29;-7.40;99.90
3644;DHT22;1838;50.742;7.158;2022-12-18T00:22:55;-7.40;99.90
3644;DHT22;1838;50.742;7.158;2022-12-18T00:25:20;-7.50;99.90
3644;DHT22;1838;50.742;7.158;2022-12-18T00:27:46;-7.50;99.90
3644;DHT22;1838;50.742;7.158;2022-12-18T00:30:12;-7.50;99.90
3644;DHT22;1838;50.742;7.158;2022-12-18T00:32:37;-7.50;99.90
3644;DHT22;1838;50.742;7.158;2022-12-18T00:35:05;-7.50;99.90
3644;DHT22;1838;50.742;7.158;2022-12-18T00:37:30;-7.50;99.90
3644;DHT22;1838;50.742;7.158;2022-12-18T00:39:56;-7.50;99.90
3644;DHT22;1838;50.742;7.158;2022-12-18T00:42:21;-7.50;99.90
3644;DHT22;1838;50.742;7.158;2022-12-18T00:45:06;-7.50;99.90
3644;DHT22;1838;50.742;7.158;2022-12-18T00:47:31;-7.50;99.90
3644;DHT22;1838;50.742;7.158;2022-12-18T00:49:57;-7.50;99.90
3644;DHT22;1838;50.742;7.158;2022-12-18T00:52:22;-7.60;99.90
3644;DHT22;1838;50.742;7.158;2022-12-18T00:54:48;-7.70;99.90
3644;DHT22;1838;50.742;7.158;2022-12-18T00:57:13;-7.80;99.90
3644;DHT22;1838;50.742;7.158;2022-12-18T00:59:39;-7.80;99.90
3644;DHT22;1838;50.742;7.158;2022-12-18T01:02:04;-7.80;99.90
3644;DHT22;1838;50.742;7.158;2022-12-18T01:04:32;-7.70;99.90
3644;DHT22;1838;50.742;7.158;2022-12-18T01:06:57;-7.70;99.90
3644;DHT22;1838;50.742;7.158;2022-12-18T01:09:23;-7.60;99.90
3644;DHT22;1838;50.742;7.158;2022-12-18T01:11:48;-7.60;99.90
3644;DHT22;1838;50.742;7.158;2022-12-18T01:14:14;-7.60;99.90
3644;DHT22;1838;50.742;7.158;2022-12-18T01:16:39;-7.60;99.90
3644;DHT22;1838;50.742;7.158;2022-12-18T01:19:05;-7.70;99.90
3644;DHT22;1838;50.742;7.158;2022-12-18T01:21:30;-7.70;99.90
3644;DHT22;1838;50.742;7.158;2022-12-18T01:23:56;-7.70;99.90
3644;DHT22;1838;50.742;7.158;2022-12-18T01:26:22;-7.70;99.90
3644;DHT22;1838;50.742;7.158;2022-12-18T01:28:48;-7.70;99.90
3644;DHT22;1838;50.742;7.158;2022-12-18T01:31:26;-7.70;99.90
3644;DHT22;1838;50.742;7.158;2022-12-18T01:33:53;-7.70;99.90
3644;DHT22;1838;50.742;7.158;2022-12-18T01:36:23;-7.80;99.90
3644;DHT22;1838;50.742;7.158;2022-12-18T01:38:49;-7.80;99.90
3644;DHT22;1838;50.742;7.158;2022-12-18T01:41:17;-7.90;99.90
3644;DHT22;1838;50.742;7.158;2022-12-18T01:43:55;-8.00;99.90
3644;DHT22;1838;50.742;7.158;2022-12-18T01:46:23;-8.00;99.90
3644;DHT22;1838;50.742;7.158;2022-12-18T01:48:57;-8.10;99.90
3644;DHT22;1838;50.742;7.158;2022-12-18T01:51:27;-8.10;99.90
3644;DHT22;1838;50.742;7.158;2022-12-18T01:53:53;-8.10;99.90
3644;DHT22;1838;50.742;7.158;2022-12-18T01:56:21;-8.20;99.90
3644;DHT22;1838;50.742;7.158;2022-12-18T01:59:03;-8.30;99.90
3644;DHT22;1838;50.742;7.158;2022-12-18T02:01:30;-8.30;99.90
3644;DHT22;1838;50.742;7.158;2022-12-18T02:04:23;-8.30;99.90
3644;DHT22;1838;50.742;7.158;2022-12-18T02:07:16;-8.20;99.90
3644;DHT22;1838;50.742;7.158;2022-12-18T02:12:44;-8.30;99.90
3644;DHT22;1838;50.742;7.158;2022-12-18T02:17:56;-8.10;99.90
3644;DHT22;1838;50.742;7.158;2022-12-18T02:31:38;-8.20;99.90
3644;DHT22;1838;50.742;7.158;2022-12-18T02:34:06;-8.20;99.90
3644;DHT22;1838;50.742;7.158;2022-12-18T02:36:34;-8.20;99.90
3644;DHT22;1838;50.742;7.158;2022-12-18T02:39:02;-8.30;99.90
3644;DHT22;1838;50.742;7.158;2022-12-18T02:41:28;-8.30;99.90
3644;DHT22;1838;50.742;7.158;2022-12-18T02:43:58;-8.20;99.90
3644;DHT22;1838;50.742;7.158;2022-12-18T02:46:31;-8.20;99.90
3644;DHT22;1838;50.742;7.158;2022-12-18T02:49:21;-8.10;99.90
3644;DHT22;1838;50.742;7.158;2022-12-18T02:52:21;-8.10;99.90
3644;DHT22;1838;50.742;7.158;2022-12-18T02:57:53;-7.90;99.90
3644;DHT22;1838;50.742;7.158;2022-12-18T03:00:23;-7.90;99.90
3644;DHT22;1838;50.742;7.158;2022-12-18T03:03:14;-7.80;99.90
3644;DHT22;1838;50.742;7.158;2022-12-18T03:05:50;-7.80;99.90
3644;DHT22;1838;50.742;7.158;2022-12-18T03:08:27;-7.80;99.90
3644;DHT22;1838;50.742;7.158;2022-12-18T03:11:00;-7.70;99.90
3644;DHT22;1838;50.742;7.158;2022-12-18T03:13:31;-7.50;99.90
3644;DHT22;1838;50.742;7.158;2022-12-18T03:15:59;-7.50;99.90
3644;DHT22;1838;50.742;7.158;2022-12-18T03:18:33;-7.40;99.90
3644;DHT22;1838;50.742;7.158;2022-12-18T03:21:04;-7.30;99.90
3644;DHT22;1838;50.742;7.158;2022-12-18T03:23:35;-7.20;99.90
3644;DHT22;1838;50.742;7.158;2022-12-18T03:26:10;-7.10;99.90
3644;DHT22;1838;50.742;7.158;2022-12-18T03:28:42;-7.00;99.90
3644;DHT22;1838;50.742;7.158;2022-12-18T03:31:11;-7.00;99.90
3644;DHT22;1838;50.742;7.158;2022-12-18T03:33:42;-7.00;99.90
3644;DHT22;1838;50.742;7.158;2022-12-18T03:36:09;-6.90;99.90
3644;DHT22;1838;50.742;7.158;2022-12-18T03:38:35;-7.00;99.90
3644;DHT22;1838;50.742;7.158;2022-12-18T03:43:34;-6.90;99.90
3644;DHT22;1838;50.742;7.158;2022-12-18T03:48:56;-6.80;99.90
3644;DHT22;1838;50.742;7.158;2022-12-18T03:54:01;-6.70;99.90
3644;DHT22;1838;50.742;7.158;2022-12-18T03:56:30;-6.70;99.90
3644;DHT22;1838;50.742;7.158;2022-12-18T03:58:57;-6.60;99.90
3644;DHT22;1838;50.742;7.158;2022-12-18T04:01:31;-6.60;99.90
3644;DHT22;1838;50.742;7.158;2022-12-18T04:03:59;-6.60;99.90
3644;DHT22;1838;50.742;7.158;2022-12-18T04:06:26;-6.60;99.90
3644;DHT22;1838;50.742;7.158;2022-12-18T04:08:52;-6.60;99.90
3644;DHT22;1838;50.742;7.158;2022-12-18T04:11:18;-6.60;99.90
3644;DHT22;1838;50.742;7.158;2022-12-18T04:13:43;-6.60;99.90
3644;DHT22;1838;50.742;7.158;2022-12-18T04:16:09;-6.60;99.90
3644;DHT22;1838;50.742;7.158;2022-12-18T04:18:35;-6.50;99.90
3644;DHT22;1838;50.742;7.158;2022-12-18T04:21:01;-6.50;99.90
3644;DHT22;1838;50.742;7.158;2022-12-18T04:23:27;-6.50;99.90
3644;DHT22;1838;50.742;7.158;2022-12-18T04:25:53;-6.50;99.90
3644;DHT22;1838;50.742;7.158;2022-12-18T04:28:19;-6.50;99.90
3644;DHT22;1838;50.742;7.158;2022-12-18T04:30:45;-6.50;99.90
3644;DHT22;1838;50.742;7.158;2022-12-18T04:33:11;-6.40;99.90
3644;DHT22;1838;50.742;7.158;2022-12-18T04:35:38;-6.50;99.90
3644;DHT22;1838;50.742;7.158;2022-12-18T04:38:05;-6.50;99.90
3644;DHT22;1838;50.742;7.158;2022-12-18T04:40:31;-6.50;99.90
3644;DHT22;1838;50.742;7.158;2022-12-18T04:43:00;-6.50;99.90
3644;DHT22;1838;50.742;7.158;2022-12-18T04:45:25;-6.50;99.90
3644;DHT22;1838;50.742;7.158;2022-12-18T04:47:51;-6.50;99.90
3644;DHT22;1838;50.742;7.158;2022-12-18T04:50:16;-6.50;99.90
3644;DHT22;1838;50.742;7.158;2022-12-18T04:52:42;-6.50;99.90
3644;DHT22;1838;50.742;7.158;2022-12-18T04:55:08;-6.50;99.90
3644;DHT22;1838;50.742;7.158;2022-12-18T04:57:33;-6.50;99.90
3644;DHT22;1838;50.742;7.158;2022-12-18T04:59:59;-6.70;99.90
3644;DHT22;1838;50.742;7.158;2022-12-18T05:02:24;-6.90;99.90
3644;DHT22;1838;50.742;7.158;2022-12-18T05:04:50;-7.10;99.90
3644;DHT22;1838;50.742;7.158;2022-12-18T05:07:15;-7.30;99.90
3644;DHT22;1838;50.742;7.158;2022-12-18T05:09:41;-7.30;99.90
3644;DHT22;1838;50.742;7.158;2022-12-18T05:12:06;-7.40;99.90
3644;DHT22;1838;50.742;7.158;2022-12-18T05:14:32;-7.40;99.90
3644;DHT22;1838;50.742;7.158;2022-12-18T05:16:57;-7.40;99.90
3644;DHT22;1838;50.742;7.158;2022-12-18T05:19:23;-7.40;99.90
3644;DHT22;1838;50.742;7.158;2022-12-18T05:21:48;-7.40;99.90
3644;DHT22;1838;50.742;7.158;2022-12-18T05:24:14;-7.50;99.90
3644;DHT22;1838;50.742;7.158;2022-12-18T05:26:39;-7.50;99.90
3644;DHT22;1838;50.742;7.158;2022-12-18T05:29:05;-7.50;99.90
3644;DHT22;1838;50.742;7.158;2022-12-18T05:31:30;-7.50;99.90
3644;DHT22;1838;50.742;7.158;2022-12-18T05:33:56;-7.60;99.90
3644;DHT22;1838;50.742;7.158;2022-12-18T05:36:21;-7.70;99.90
3644;DHT22;1838;50.742;7.158;2022-12-18T05:38:47;-7.80;99.90
3644;DHT22;1838;50.742;7.158;2022-12-18T05:41:12;-7.80;99.90
3644;DHT22;1838;50.742;7.158;2022-12-18T05:43:39;-7.80;99.90
3644;DHT22;1838;50.742;7.158;2022-12-18T05:46:06;-7.80;99.90
3644;DHT22;1838;50.742;7.158;2022-12-18T05:48:32;-7.80;99.90
3644;DHT22;1838;50.742;7.158;2022-12-18T05:51:04;-7.80;99.90
3644;DHT22;1838;50.742;7.158;2022-12-18T05:53:30;-7.70;99.90
3644;DHT22;1838;50.742;7.158;2022-12-18T05:56:00;-7.70;99.90
3644;DHT22;1838;50.742;7.158;2022-12-18T05:58:25;-7.70;99.90
3644;DHT22;1838;50.742;7.158;2022-12-18T06:00:51;-7.70;99.90
3644;DHT22;1838;50.742;7.158;2022-12-18T06:03:16;-7.70;99.90
3644;DHT22;1838;50.742;7.158;2022-12-18T06:05:43;-7.60;99.90
3644;DHT22;1838;50.742;7.158;2022-12-18T06:08:10;-7.60;99.90
3644;DHT22;1838;50.742;7.158;2022-12-18T06:10:36;-7.70;99.90
3644;DHT22;1838;50.742;7.158;2022-12-18T06:13:01;-7.60;99.90
3644;DHT22;1838;50.742;7.158;2022-12-18T06:15:27;-7.60;99.90
3644;DHT22;1838;50.742;7.158;2022-12-18T06:17:53;-7.60;99.90
3644;DHT22;1838;50.742;7.158;2022-12-18T06:20:18;-7.60;99.90
3644;DHT22;1838;50.742;7.158;2022-12-18T06:22:44;-7.50;99.90
3644;DHT22;1838;50.742;7.158;2022-12-18T06:25:10;-7.50;99.90
3644;DHT22;1838;50.742;7.158;2022-12-18T06:27:35;-7.40;99.90
3644;DHT22;1838;50.742;7.158;2022-12-18T06:30:01;-7.40;99.90
3644;DHT22;1838;50.742;7.158;2022-12-18T06:32:27;-7.30;99.90
3644;DHT22;1838;50.742;7.158;2022-12-18T06:34:52;-7.20;99.90
3644;DHT22;1838;50.742;7.158;2022-12-18T06:37:19;-7.20;99.90
3644;DHT22;1838;50.742;7.158;2022-12-18T06:39:44;-7.10;99.90
3644;DHT22;1838;50.742;7.158;2022-12-18T06:42:10;-7.00;99.90
3644;DHT22;1838;50.742;7.158;2022-12-18T06:44:35;-7.00;99.90
3644;DHT22;1838;50.742;7.158;2022-12-18T06:47:01;-6.80;99.90
3644;DHT22;1838;50.742;7.158;2022-12-18T06:49:26;-6.80;99.90
3644;DHT22;1838;50.742;7.158;2022-12-18T06:51:52;-6.70;99.90
3644;DHT22;1838;50.742;7.158;2022-12-18T06:54:18;-6.70;99.90
3644;DHT22;1838;50.742;7.158;2022-12-18T06:56:45;-6.60;99.90
3644;DHT22;1838;50.742;7.158;2022-12-18T06:59:11;-6.60;99.90
3644;DHT22;1838;50.742;7.158;2022-12-18T07:01:37;-6.50;99.90
3644;DHT22;1838;50.742;7.158;2022-12-18T07:04:02;-6.50;99.90
3644;DHT22;1838;50.742;7.158;2022-12-18T07:06:28;-6.50;99.90
3644;DHT22;1838;50.742;7.158;2022-12-18T07:08:54;-6.50;99.90
3644;DHT22;1838;50.742;7.158;2022-12-18T07:11:19;-6.40;99.90
3644;DHT22;1838;50.742;7.158;2022-12-18T07:13:46;-6.40;99.90
3644;DHT22;1838;50.742;7.158;2022-12-18T07:16:14;-6.40;99.90
3644;DHT22;1838;50.742;7.158;2022-12-18T07:18:40;-6.40;99.90
3644;DHT22;1838;50.742;7.158;2022-12-18T07:21:07;-6.40;99.90
3644;DHT22;1838;50.742;7.158;2022-12-18T07:23:34;-6.40;99.90
3644;DHT22;1838;50.742;7.158;2022-12-18T07:26:08;-6.50;99.90
3644;DHT22;1838;50.742;7.158;2022-12-18T07:28:34;-6.50;99.90
3644;DHT22;1838;50.742;7.158;2022-12-18T07:31:08;-6.50;99.90
3644;DHT22;1838;50.742;7.158;2022-12-18T07:33:34;-6.60;99.90
3644;DHT22;1838;50.742;7.158;2022-12-18T07:36:03;-6.60;99.90
3644;DHT22;1838;50.742;7.158;2022-12-18T07:38:30;-6.60;99.90
3644;DHT22;1838;50.742;7.158;2022-12-18T07:41:02;-6.70;99.90
3644;DHT22;1838;50.742;7.158;2022-12-18T07:43:28;-6.80;99.90
3644;DHT22;1838;50.742;7.158;2022-12-18T07:45:54;-6.90;99.90
3644;DHT22;1838;50.742;7.158;2022-12-18T07:48:19;-6.90;99.90
3644;DHT22;1838;50.742;7.158;2022-12-18T07:50:45;-6.90;99.90
3644;DHT22;1838;50.742;7.158;2022-12-18T07:53:10;-6.90;99.90
3644;DHT22;1838;50.742;7.158;2022-12-18T07:55:36;-6.90;99.90
3644;DHT22;1838;50.742;7.158;2022-12-18T07:58:03;-6.90;99.90
3644;DHT22;1838;50.742;7.158;2022-12-18T08:00:29;-7.00;99.90
3644;DHT22;1838;50.742;7.158;2022-12-18T08:02:55;-7.00;99.90
3644;DHT22;1838;50.742;7.158;2022-12-18T08:05:21;-6.90;99.90
3644;DHT22;1838;50.742;7.158;2022-12-18T08:07:47;-6.90;99.90
3644;DHT22;1838;50.742;7.158;2022-12-18T08:10:13;-6.90;99.90
3644;DHT22;1838;50.742;7.158;2022-12-18T08:12:38;-6.90;99.90
3644;DHT22;1838;50.742;7.158;2022-12-18T08:15:05;-6.90;99.90
3644;DHT22;1838;50.742;7.158;2022-12-18T08:17:30;-6.90;99.90
3644;DHT22;1838;50.742;7.158;2022-12-18T08:19:56;-6.90;99.90
3644;DHT22;1838;50.742;7.158;2022-12-18T08:22:21;-6.90;99.90
3644;DHT22;1838;50.742;7.158;2022-12-18T08:24:47;-6.80;99.90
3644;DHT22;1838;50.742;7.158;2022-12-18T08:27:12;-6.80;99.90
3644;DHT22;1838;50.742;7.158;2022-12-18T08:29:38;-6.70;99.90
3644;DHT22;1838;50.742;7.158;2022-12-18T08:32:04;-6.70;99.90
3644;DHT22;1838;50.742;7.158;2022-12-18T08:34:29;-6.70;99.90
3644;DHT22;1838;50.742;7.158;2022-12-18T08:36:55;-6.60;99.90
3644;DHT22;1838;50.742;7.158;2022-12-18T08:39:20;-6.60;99.90
3644;DHT22;1838;50.742;7.158;2022-12-18T08:41:46;-6.50;99.90
3644;DHT22;1838;50.742;7.158;2022-12-18T08:44:31;-6.40;99.90
3644;DHT22;1838;50.742;7.158;2022-12-18T08:47:03;-6.40;99.90
3644;DHT22;1838;50.742;7.158;2022-12-18T08:49:29;-6.50;99.90
3644;DHT22;1838;50.742;7.158;2022-12-18T08:51:56;-6.50;99.90
3644;DHT22;1838;50.742;7.158;2022-12-18T08:54:23;-6.50;99.90
3644;DHT22;1838;50.742;7.158;2022-12-18T08:56:48;-6.40;99.90
3644;DHT22;1838;50.742;7.158;2022-12-18T08:59:15;-6.40;99.90
3644;DHT22;1838;50.742;7.158;2022-12-18T09:01:41;-6.30;99.90
3644;DHT22;1838;50.742;7.158;2022-12-18T09:04:08;-6.30;99.90
3644;DHT22;1838;50.742;7.158;2022-12-18T09:06:34;-6.20;99.90
3644;DHT22;1838;50.742;7.158;2022-12-18T09:09:00;-6.10;99.90
3644;DHT22;1838;50.742;7.158;2022-12-18T09:11:26;-6.10;99.90
3644;DHT22;1838;50.742;7.158;2022-12-18T09:13:53;-6.00;99.90
3644;DHT22;1838;50.742;7.158;2022-12-18T09:16:20;-5.90;99.90
3644;DHT22;1838;50.742;7.158;2022-12-18T09:18:46;-5.80;99.90
3644;DHT22;1838;50.742;7.158;2022-12-18T09:21:14;-5.70;99.90
3644;DHT22;1838;50.742;7.158;2022-12-18T09:23:40;-5.60;99.90
3644;DHT22;1838;50.742;7.158;2022-12-18T09:26:06;-5.50;99.90
3644;DHT22;1838;50.742;7.158;2022-12-18T09:28:32;-5.40;99.90
3644;DHT22;1838;50.742;7.158;2022-12-18T09:30:58;-5.40;99.90
3644;DHT22;1838;50.742;7.158;2022-12-18T09:33:24;-5.30;99.90
3644;DHT22;1838;50.742;7.158;2022-12-18T09:35:49;-5.30;99.90
3644;DHT22;1838;50.742;7.158;2022-12-18T09:38:17;-5.20;99.90
3644;DHT22;1838;50.742;7.158;2022-12-18T09:40:49;-5.10;99.90
3644;DHT22;1838;50.742;7.158;2022-12-18T09:43:22;-5.00;99.90
3644;DHT22;1838;50.742;7.158;2022-12-18T09:45:55;-4.90;99.90
3644;DHT22;1838;50.742;7.158;2022-12-18T09:48:27;-4.70;99.90
3644;DHT22;1838;50.742;7.158;2022-12-18T09:50:58;-4.60;99.90
3644;DHT22;1838;50.742;7.158;2022-12-18T09:53:29;-4.50;99.90
3644;DHT22;1838;50.742;7.158;2022-12-18T09:55:56;-4.30;99.90
3644;DHT22;1838;50.742;7.158;2022-12-18T09:58:36;-4.20;99.90
3644;DHT22;1838;50.742;7.158;2022-12-18T10:01:10;-4.00;99.90
3644;DHT22;1838;50.742;7.158;2022-12-18T10:03:35;-3.80;99.90
3644;DHT22;1838;50.742;7.158;2022-12-18T10:11:43;-3.30;99.90
3644;DHT22;1838;50.742;7.158;2022-12-18T10:17:19;-3.00;99.90
3644;DHT22;1838;50.742;7.158;2022-12-18T10:20:13;-2.80;99.90
3644;DHT22;1838;50.742;7.158;2022-12-18T10:23:12;-2.70;99.90
3644;DHT22;1838;50.742;7.158;2022-12-18T10:25:52;-2.50;99.90
3644;DHT22;1838;50.742;7.158;2022-12-18T10:28:20;-2.40;99.90
3644;DHT22;1838;50.742;7.158;2022-12-18T10:30:46;-2.30;99.90
3644;DHT22;1838;50.742;7.158;2022-12-18T10:33:17;-2.20;99.90
3644;DHT22;1838;50.742;7.158;2022-12-18T10:35:43;-2.10;99.90
3644;DHT22;1838;50.742;7.158;2022-12-18T10:43:39;-1.70;99.90
3644;DHT22;1838;50.742;7.158;2022-12-18T10:51:21;-1.50;99.90
3644;DHT22;1838;50.742;7.158;2022-12-18T10:53:53;-1.50;99.90
3644;DHT22;1838;50.742;7.158;2022-12-18T10:56:20;-1.40;99.90
3644;DHT22;1838;50.742;7.158;2022-12-18T10:58:56;-1.30;99.90
3644;DHT22;1838;50.742;7.158;2022-12-18T11:01:22;-1.20;99.90
3644;DHT22;1838;50.742;7.158;2022-12-18T11:06:21;-1.10;99.90
3644;DHT22;1838;50.742;7.158;2022-12-18T11:09:19;-1.00;99.90
3644;DHT22;1838;50.742;7.158;2022-12-18T11:11:53;-1.00;99.90
3644;DHT22;1838;50.742;7.158;2022-12-18T11:16:50;-0.90;99.90
3644;DHT22;1838;50.742;7.158;2022-12-18T11:21:51;-0.60;99.90
3644;DHT22;1838;50.742;7.158;2022-12-18T11:26:49;-0.60;99.90
3644;DHT22;1838;50.742;7.158;2022-12-18T11:29:23;-0.50;99.90
3644;DHT22;1838;50.742;7.158;2022-12-18T11:31:50;-0.50;99.90
3644;DHT22;1838;50.742;7.158;2022-12-18T11:34:30;-0.50;99.90
3644;DHT22;1838;50.742;7.158;2022-12-18T11:36:58;-0.60;99.90
3644;DHT22;1838;50.742;7.158;2022-12-18T11:39:37;-0.50;99.90
3644;DHT22;1838;50.742;7.158;2022-12-18T11:42:11;-0.50;99.90
3644;DHT22;1838;50.742;7.158;2022-12-18T11:45:03;-0.50;99.90
3644;DHT22;1838;50.742;7.158;2022-12-18T11:53:04;-0.40;99.90
3644;DHT22;1838;50.742;7.158;2022-12-18T11:55:50;-0.50;99.90
3644;DHT22;1838;50.742;7.158;2022-12-18T12:18:13;-0.60;99.90
3644;DHT22;1838;50.742;7.158;2022-12-18T12:21:10;-0.60;99.90
3644;DHT22;1838;50.742;7.158;2022-12-18T12:24:09;-0.60;99.90
3644;DHT22;1838;50.742;7.158;2022-12-18T12:30:00;-0.60;99.90
3644;DHT22;1838;50.742;7.158;2022-12-18T12:38:01;-0.30;99.90
3644;DHT22;1838;50.742;7.158;2022-12-18T12:40:35;-0.20;99.90
3644;DHT22;1838;50.742;7.158;2022-12-18T12:43:24;-0.10;99.90
3644;DHT22;1838;50.742;7.158;2022-12-18T12:48:46;0.10;99.90
3644;DHT22;1838;50.742;7.158;2022-12-18T12:51:32;0.10;99.90
3644;DHT22;1838;50.742;7.158;2022-12-18T12:53:59;0.10;99.90
3644;DHT22;1838;50.742;7.158;2022-12-18T12:56:37;0.00;99.90
3644;DHT22;1838;50.742;7.158;2022-12-18T12:59:22;-0.10;99.90
3644;DHT22;1838;50.742;7.158;2022-12-18T13:04:49;-0.30;99.90
3644;DHT22;1838;50.742;7.158;2022-12-18T13:07:32;-0.40;99.90
3644;DHT22;1838;50.742;7.158;2022-12-18T13:13:01;-0.50;99.90
3644;DHT22;1838;50.742;7.158;2022-12-18T13:16:03;-0.60;99.90
3644;DHT22;1838;50.742;7.158;2022-12-18T13:18:30;-0.60;99.90
3644;DHT22;1838;50.742;7.158;2022-12-18T13:25:57;-0.60;99.90
3644;DHT22;1838;50.742;7.158;2022-12-18T13:34:26;-0.60;99.90
3644;DHT22;1838;50.742;7.158;2022-12-18T13:36:53;-0.60;99.90
3644;DHT22;1838;50.742;7.158;2022-12-18T13:44:39;-0.50;99.90
3644;DHT22;1838;50.742;7.158;2022-12-18T13:47:31;-0.30;99.90
3644;DHT22;1838;50.742;7.158;2022-12-18T13:49:57;-0.30;99.90
3644;DHT22;1838;50.742;7.158;2022-12-18T13:52:28;-0.30;99.90
3644;DHT22;1838;50.742;7.158;2022-12-18T13:54:56;-0.30;99.90
3644;DHT22;1838;50.742;7.158;2022-12-18T13:57:36;-0.30;99.90
3644;DHT22;1838;50.742;7.158;2022-12-18T14:00:25;-0.30;99.90
3644;DHT22;1838;50.742;7.158;2022-12-18T14:02:52;-0.20;99.90
3644;DHT22;1838;50.742;7.158;2022-12-18T14:07:53;-0.20;99.90
3644;DHT22;1838;50.742;7.158;2022-12-18T14:10:19;-0.20;99.90
3644;DHT22;1838;50.742;7.158;2022-12-18T14:12:48;-0.20;99.90
3644;DHT22;1838;50.742;7.158;2022-12-18T14:17:57;-0.10;99.90
3644;DHT22;1838;50.742;7.158;2022-12-18T14:20:25;-0.20;99.90
3644;DHT22;1838;50.742;7.158;2022-12-18T14:22:51;-0.20;99.90
3644;DHT22;1838;50.742;7.158;2022-12-18T14:25:25;-0.20;99.90
3644;DHT22;1838;50.742;7.158;2022-12-18T14:27:51;-0.10;99.90
3644;DHT22;1838;50.742;7.158;2022-12-18T14:33:10;0.00;99.90
3644;DHT22;1838;50.742;7.158;2022-12-18T14:35:39;0.00;99.90
3644;DHT22;1838;50.742;7.158;2022-12-18T14:38:26;-0.10;99.90
3644;DHT22;1838;50.742;7.158;2022-12-18T14:41:00;-0.20;99.90
3644;DHT22;1838;50.742;7.158;2022-12-18T14:43:28;-0.20;99.90
3644;DHT22;1838;50.742;7.158;2022-12-18T14:45:54;-0.30;99.90
3644;DHT22;1838;50.742;7.158;2022-12-18T14:48:33;-0.20;99.90
3644;DHT22;1838;50.742;7.158;2022-12-18T14:51:02;-0.20;99.90
3644;DHT22;1838;50.742;7.158;2022-12-18T14:53:41;-0.20;99.90
3644;DHT22;1838;50.742;7.158;2022-12-18T14:56:19;-0.20;99.90
3644;DHT22;1838;50.742;7.158;2022-12-18T15:01:23;-0.30;99.90
3644;DHT22;1838;50.742;7.158;2022-12-18T15:03:50;-0.40;99.90
3644;DHT22;1838;50.742;7.158;2022-12-18T15:08:56;-0.50;99.90
3644;DHT22;1838;50.742;7.158;2022-12-18T15:11:32;-0.60;99.90
3644;DHT22;1838;50.742;7.158;2022-12-18T15:13:58;-0.60;99.90
3644;DHT22;1838;50.742;7.158;2022-12-18T15:16:25;-0.60;99.90
3644;DHT22;1838;50.742;7.158;2022-12-18T15:18:50;-0.60;99.90
3644;DHT22;1838;50.742;7.158;2022-12-18T15:21:18;-0.70;99.90
3644;DHT22;1838;50.742;7.158;2022-12-18T15:26:11;-0.80;99.90
3644;DHT22;1838;50.742;7.158;2022-12-18T15:33:38;-0.90;99.90
3644;DHT22;1838;50.742;7.158;2022-12-18T15:36:08;-0.90;99.90
3644;DHT22;1838;50.742;7.158;2022-12-18T15:38:34;-0.90;99.90
3644;DHT22;1838;50.742;7.158;2022-12-18T15:41:00;-0.90;99.90
3644;DHT22;1838;50.742;7.158;2022-12-18T15:43:27;-0.90;99.90
3644;DHT22;1838;50.742;7.158;2022-12-18T15:46:02;-0.90;99.90
3644;DHT22;1838;50.742;7.158;2022-12-18T15:48:28;-0.90;99.90
3644;DHT22;1838;50.742;7.158;2022-12-18T15:50:56;-0.80;99.90
3644;DHT22;1838;50.742;7.158;2022-12-18T15:53:23;-0.80;99.90
3644;DHT22;1838;50.742;7.158;2022-12-18T15:55:49;-0.90;99.90
3644;DHT22;1838;50.742;7.158;2022-12-18T15:58:33;-0.90;99.90
3644;DHT22;1838;50.742;7.158;2022-12-18T16:00:59;-0.90;99.90
3644;DHT22;1838;50.742;7.158;2022-12-18T16:03:25;-0.90;99.90
3644;DHT22;1838;50.742;7.158;2022-12-18T16:05:50;-1.00;99.90
3644;DHT22;1838;50.742;7.158;2022-12-18T16:08:16;-1.00;99.90
3644;DHT22;1838;50.742;7.158;2022-12-18T16:10:41;-0.90;99.90
3644;DHT22;1838;50.742;7.158;2022-12-18T16:13:12;-0.80;99.90
3644;DHT22;1838;50.742;7.158;2022-12-18T16:15:38;-0.70;99.90
3644;DHT22;1838;50.742;7.158;2022-12-18T16:18:04;-0.60;99.90
3644;DHT22;1838;50.742;7.158;2022-12-18T16:20:29;-0.60;99.90
3644;DHT22;1838;50.742;7.158;2022-12-18T16:22:55;-0.60;99.90
3644;DHT22;1838;50.742;7.158;2022-12-18T16:25:26;-0.60;99.90
3644;DHT22;1838;50.742;7.158;2022-12-18T16:27:53;-0.50;99.90
3644;DHT22;1838;50.742;7.158;2022-12-18T16:30:23;-0.50;99.90
3644;DHT22;1838;50.742;7.158;2022-12-18T16:32:49;-0.60;99.90
3644;DHT22;1838;50.742;7.158;2022-12-18T16:35:16;-0.60;99.90
3644;DHT22;1838;50.742;7.158;2022-12-18T16:37:42;-0.60;99.90
3644;DHT22;1838;50.742;7.158;2022-12-18T16:40:11;-0.60;99.90
3644;DHT22;1838;50.742;7.158;2022-12-18T16:42:38;-0.70;99.90
3644;DHT22;1838;50.742;7.158;2022-12-18T16:45:05;-0.80;99.90
3644;DHT22;1838;50.742;7.158;2022-12-18T16:47:31;-0.80;99.90
3644;DHT22;1838;50.742;7.158;2022-12-18T16:49:56;-0.80;99.90
3644;DHT22;1838;50.742;7.158;2022-12-18T16:52:22;-0.80;99.90
3644;DHT22;1838;50.742;7.158;2022-12-18T16:54:48;-0.90;99.90
3644;DHT22;1838;50.742;7.158;2022-12-18T16:57:16;-0.90;99.90
3644;DHT22;1838;50.742;7.158;2022-12-18T16:59:42;-0.90;99.90
3644;DHT22;1838;50.742;7.158;2022-12-18T17:02:16;-0.90;99.90
3644;DHT22;1838;50.742;7.158;2022-12-18T17:04:43;-1.00;99.90
3644;DHT22;1838;50.742;7.158;2022-12-18T17:07:09;-1.00;99.90
3644;DHT22;1838;50.742;7.158;2022-12-18T17:09:35;-1.00;99.90
3644;DHT22;1838;50.742;7.158;2022-12-18T17:12:00;-0.90;99.90
3644;DHT22;1838;50.742;7.158;2022-12-18T17:14:26;-0.90;99.90
3644;DHT22;1838;50.742;7.158;2022-12-18T17:16:53;-0.90;99.90
3644;DHT22;1838;50.742;7.158;2022-12-18T17:19:19;-0.90;99.90
3644;DHT22;1838;50.742;7.158;2022-12-18T17:21:47;-0.90;99.90
3644;DHT22;1838;50.742;7.158;2022-12-18T17:24:14;-0.90;99.90
3644;DHT22;1838;50.742;7.158;2022-12-18T17:26:39;-0.90;99.90
3644;DHT22;1838;50.742;7.158;2022-12-18T17:29:05;-0.90;99.90
3644;DHT22;1838;50.742;7.158;2022-12-18T17:31:31;-0.80;99.90
3644;DHT22;1838;50.742;7.158;2022-12-18T17:33:57;-0.90;99.90
3644;DHT22;1838;50.742;7.158;2022-12-18T17:36:24;-0.90;99.90
3644;DHT22;1838;50.742;7.158;2022-12-18T17:38:55;-0.80;99.90
3644;DHT22;1838;50.742;7.158;2022-12-18T17:41:22;-0.80;99.90
3644;DHT22;1838;50.742;7.158;2022-12-18T17:43:59;-0.90;99.90
3644;DHT22;1838;50.742;7.158;2022-12-18T17:46:27;-1.00;99.90
3644;DHT22;1838;50.742;7.158;2022-12-18T17:48:56;-1.10;99.90
3644;DHT22;1838;50.742;7.158;2022-12-18T17:51:22;-1.10;99.90
3644;DHT22;1838;50.742;7.158;2022-12-18T17:53:48;-1.20;99.90
3644;DHT22;1838;50.742;7.158;2022-12-18T17:56:17;-1.20;99.90
3644;DHT22;1838;50.742;7.158;2022-12-18T17:58:43;-1.10;99.90
3644;DHT22;1838;50.742;7.158;2022-12-18T18:01:12;-1.20;99.90
3644;DHT22;1838;50.742;7.158;2022-12-18T18:03:38;-1.20;99.90
3644;DHT22;1838;50.742;7.158;2022-12-18T18:06:04;-1.20;99.90
3644;DHT22;1838;50.742;7.158;2022-12-18T18:08:30;-1.10;99.90
3644;DHT22;1838;50.742;7.158;2022-12-18T18:10:56;-1.20;99.90
3644;DHT22;1838;50.742;7.158;2022-12-18T18:13:45;-1.10;99.90
3644;DHT22;1838;50.742;7.158;2022-12-18T18:16:36;-1.20;99.90
3644;DHT22;1838;50.742;7.158;2022-12-18T18:19:05;-1.20;99.90
3644;DHT22;1838;50.742;7.158;2022-12-18T18:21:31;-1.20;99.90
3644;DHT22;1838;50.742;7.158;2022-12-18T18:24:01;-1.20;99.90
3644;DHT22;1838;50.742;7.158;2022-12-18T18:26:27;-1.20;99.90
3644;DHT22;1838;50.742;7.158;2022-12-18T18:28:56;-1.20;99.90
3644;DHT22;1838;50.742;7.158;2022-12-18T18:31:22;-1.10;99.90